Time;durP1;ratioP1;P1;durP2;ratioP2;P2;SDS_P1;SDS_P2;PMS_P1;PMS_P2;Temp;Humidity;BMP_temperature;BMP_pressure;BME280_temperature;BME280_humidity;BME280_pressure;Samples;Min_cycle;Max_cycle;Signal;HPM_P1;HPM_P2
2022/04/24 00:00:25;;;;;;;10.45;4.07;;;;;;;14.01;40.66;100378.28;5022900;27;98993;-73
2022/04/24 00:02:52;;;;;;;5.55;4.35;;;;;;;13.53;41.97;100380.84;5020643;27;96869;-73
2022/04/24 00:05:20;;;;;;;6.05;4.00;;;;;;;13.30;42.34;100370.59;5027580;27;96941;-72
2022/04/24 00:07:46;;;;;;;9.95;4.00;;;;;;;13.44;42.03;100372.53;5029307;28;99023;-74
2022/04/24 00:10:12;;;;;;;8.60;4.13;;;;;;;13.77;41.46;100370.72;5028521;27;99055;-72
2022/04/24 00:12:39;;;;;;;8.77;4.20;;;;;;;13.67;41.63;100374.81;5030330;27;97343;-73
2022/04/24 00:15:06;;;;;;;8.30;4.25;;;;;;;12.86;43.63;100367.56;5028873;27;97486;-73
2022/04/24 00:17:32;;;;;;;9.65;4.53;;;;;;;13.57;42.25;100368.28;5027235;27;100967;-73
2022/04/24 00:19:59;;;;;;;8.07;4.10;;;;;;;13.62;41.97;100373.34;5023710;27;99067;-74
2022/04/24 00:22:27;;;;;;;13.48;4.43;;;;;;;14.08;41.02;100369.88;5024591;27;97066;-72
2022/04/24 00:24:54;;;;;;;6.72;3.78;;;;;;;13.64;41.97;100374.97;5025991;27;97024;-72
2022/04/24 00:27:20;;;;;;;6.50;3.90;;;;;;;13.62;42.34;100371.53;5028864;27;100162;-72
2022/04/24 00:29:47;;;;;;;7.25;4.10;;;;;;;13.58;42.25;100364.69;5028320;28;98845;-72
2022/04/24 00:32:13;;;;;;;7.05;4.05;;;;;;;13.49;42.67;100354.56;5027652;27;97151;-72
2022/04/24 00:34:41;;;;;;;10.23;4.20;;;;;;;12.99;43.26;100357.19;5030553;27;96809;-72
2022/04/24 00:37:07;;;;;;;7.43;3.72;;;;;;;13.02;43.49;100355.22;5028027;27;98911;-73
2022/04/24 00:39:35;;;;;;;10.75;4.10;;;;;;;13.37;43.10;100357.88;5022669;27;102043;-73
2022/04/24 00:42:01;;;;;;;9.68;4.30;;;;;;;13.24;43.59;100348.84;5021987;27;97100;-73
2022/04/24 00:44:28;;;;;;;9.85;4.40;;;;;;;12.46;44.94;100350.16;5025783;27;97062;-69
2022/04/24 00:46:58;;;;;;;9.13;4.80;;;;;;;12.78;44.50;100340.59;5029082;27;99457;-69
2022/04/24 00:49:25;;;;;;;9.52;4.68;;;;;;;12.71;44.54;100344.47;5026432;27;99002;-69
2022/04/24 00:51:52;;;;;;;10.60;5.25;;;;;;;12.66;45.01;100346.50;5027613;27;97531;-71
2022/04/24 00:54:19;;;;;;;7.05;4.22;;;;;;;12.60;45.22;100346.81;5024600;27;98939;-69
2022/04/24 00:56:47;;;;;;;14.57;4.95;;;;;;;13.26;43.74;100342.50;5030050;27;101600;-68
2022/04/24 00:59:15;;;;;;;12.02;4.78;;;;;;;13.51;43.21;100348.25;5028683;27;99200;-70
2022/04/24 01:01:42;;;;;;;8.63;4.40;;;;;;;13.13;43.72;100346.75;5025981;27;97154;-70
2022/04/24 01:04:10;;;;;;;9.85;4.63;;;;;;;12.54;45.16;100339.16;5029788;27;96857;-69
2022/04/24 01:06:39;;;;;;;9.05;4.53;;;;;;;12.16;46.53;100335.75;5027021;27;97413;-68
2022/04/24 01:09:15;;;;;;;9.20;4.68;;;;;;;12.70;45.26;100330.38;5030518;27;98852;-69
2022/04/24 01:11:43;;;;;;;9.95;5.28;;;;;;;12.72;45.02;100328.50;5023692;27;96943;-68
2022/04/24 01:14:11;;;;;;;10.65;4.95;;;;;;;13.09;44.30;100324.78;5033121;27;97174;-69
2022/04/24 01:16:38;;;;;;;12.07;5.45;;;;;;;12.68;45.33;100324.28;5023680;27;99468;-69
2022/04/24 01:19:05;;;;;;;10.60;4.68;;;;;;;12.89;44.68;100324.97;5025768;27;99242;-68
2022/04/24 01:21:33;;;;;;;9.00;4.80;;;;;;;12.72;45.19;100330.28;5030158;28;96747;-70
2022/04/24 01:24:00;;;;;;;10.85;5.05;;;;;;;12.68;45.37;100323.41;5024771;27;97413;-68
2022/04/24 01:26:26;;;;;;;11.07;5.40;;;;;;;12.75;45.31;100330.13;5030587;27;99473;-70
2022/04/24 01:28:53;;;;;;;9.35;4.70;;;;;;;12.96;44.74;100315.75;5030906;27;97582;-69
2022/04/24 01:31:20;;;;;;;8.82;4.65;;;;;;;13.03;44.81;100325.13;5029435;27;96966;-69
2022/04/24 01:33:46;;;;;;;9.10;4.60;;;;;;;12.37;46.08;100318.81;5028292;27;97785;-68
2022/04/24 01:36:13;;;;;;;9.32;4.43;;;;;;;12.02;47.07;100320.50;5026327;27;98987;-69
2022/04/24 01:38:41;;;;;;;8.82;4.55;;;;;;;12.20;46.92;100317.00;5024420;27;99333;-68
2022/04/24 01:41:08;;;;;;;10.95;5.15;;;;;;;12.08;47.10;100317.56;5022975;27;97149;-67
2022/04/24 01:43:36;;;;;;;8.02;4.85;;;;;;;12.30;46.86;100307.66;5030877;27;96950;-68
2022/04/24 01:46:03;;;;;;;9.68;4.78;;;;;;;11.80;47.79;100311.88;5023462;27;101846;-68
2022/04/24 01:48:30;;;;;;;12.15;4.95;;;;;;;11.45;48.73;100317.00;5028407;27;98726;-68
2022/04/24 01:50:56;;;;;;;9.40;4.80;;;;;;;12.41;46.53;100306.25;5025817;27;96947;-68
2022/04/24 01:53:23;;;;;;;12.77;4.35;;;;;;;12.25;46.84;100309.69;5029314;27;97291;-67
2022/04/24 01:55:51;;;;;;;9.38;4.78;;;;;;;12.26;46.65;100308.75;5026469;27;99111;-68
2022/04/24 01:58:17;;;;;;;7.60;4.35;;;;;;;11.92;47.64;100312.16;5025870;27;98945;-67
2022/04/24 02:00:43;;;;;;;14.20;5.18;;;;;;;11.78;48.10;100317.25;5030392;27;96763;-68
2022/04/24 02:03:10;;;;;;;10.77;4.63;;;;;;;11.71;48.26;100306.97;5024763;27;99053;-67
2022/04/24 02:05:36;;;;;;;13.65;4.72;;;;;;;11.45;49.00;100317.00;5027620;27;99107;-68
2022/04/24 02:08:03;;;;;;;7.07;4.35;;;;;;;11.47;49.30;100314.28;5024540;27;97729;-68
2022/04/24 02:10:29;;;;;;;9.60;4.70;;;;;;;11.39;49.19;100308.47;5026878;27;97314;-68
2022/04/24 02:12:57;;;;;;;11.07;5.32;;;;;;;11.73;48.13;100316.59;5023266;27;96811;-67
2022/04/24 02:15:24;;;;;;;12.68;4.97;;;;;;;12.03;47.93;100309.00;5026736;27;99279;-68
2022/04/24 02:17:50;;;;;;;10.50;4.70;;;;;;;11.87;47.93;100314.19;5029699;27;99436;-67
2022/04/24 02:20:17;;;;;;;9.23;5.25;;;;;;;11.63;48.48;100319.72;5025512;27;97972;-67
2022/04/24 02:22:43;;;;;;;11.07;5.18;;;;;;;11.74;48.17;100310.41;5021777;27;97835;-67
2022/04/24 02:25:09;;;;;;;10.98;4.95;;;;;;;11.89;47.72;100311.44;5019083;27;97795;-68
2022/04/24 02:27:37;;;;;;;11.73;4.95;;;;;;;11.17;49.43;100309.44;5028442;27;97531;-68
2022/04/24 02:30:06;;;;;;;11.80;5.50;;;;;;;10.92;50.53;100305.31;5028012;27;96914;-67
2022/04/24 02:32:32;;;;;;;9.27;4.55;;;;;;;10.86;50.32;100305.59;5031189;27;96839;-68
2022/04/24 02:34:58;;;;;;;10.77;4.80;;;;;;;10.81;51.01;100302.28;5028413;27;97713;-68
2022/04/24 02:37:25;;;;;;;9.88;5.15;;;;;;;10.86;50.66;100305.59;5028635;27;98935;-69
2022/04/24 02:39:51;;;;;;;12.95;5.50;;;;;;;10.75;50.86;100295.50;5027792;27;98583;-69
2022/04/24 02:42:18;;;;;;;13.20;5.55;;;;;;;11.03;50.28;100298.63;5023303;27;98843;-69
2022/04/24 02:44:45;;;;;;;11.63;5.30;;;;;;;10.87;50.54;100288.81;5015266;27;99313;-68
2022/04/24 02:47:12;;;;;;;13.70;5.50;;;;;;;11.23;49.75;100288.94;5024098;27;99441;-68
2022/04/24 02:49:39;;;;;;;9.05;5.30;;;;;;;11.33;49.44;100288.47;5017564;27;98552;-68
2022/04/24 02:52:06;;;;;;;9.70;5.13;;;;;;;10.95;50.42;100290.19;5024316;27;97384;-69
2022/04/24 02:54:35;;;;;;;10.02;5.22;;;;;;;10.91;50.30;100282.44;5027363;27;98724;-67
2022/04/24 02:57:02;;;;;;;13.02;5.10;;;;;;;11.67;48.88;100284.25;5024178;27;99265;-68
2022/04/24 02:59:29;;;;;;;12.30;5.10;;;;;;;12.23;46.93;100279.75;5029013;27;96852;-68
2022/04/24 03:01:56;;;;;;;8.35;5.43;;;;;;;11.74;47.85;100269.84;5026871;27;96814;-68
2022/04/24 03:04:23;;;;;;;17.25;5.65;;;;;;;11.58;48.25;100278.44;5024614;27;99351;-67
2022/04/24 03:06:50;;;;;;;11.65;5.32;;;;;;;11.34;48.87;100270.81;5024682;27;98842;-72
2022/04/24 03:09:16;;;;;;;10.20;5.10;;;;;;;11.35;49.03;100272.53;5020973;27;99057;-73
2022/04/24 03:11:42;;;;;;;11.82;5.35;;;;;;;11.38;48.85;100267.06;5025620;27;97795;-73
2022/04/24 03:14:09;;;;;;;13.90;5.95;;;;;;;11.24;49.45;100262.41;5028384;27;98861;-73
2022/04/24 03:16:35;;;;;;;10.40;5.45;;;;;;;11.02;50.07;100259.06;5023796;27;98905;-73
2022/04/24 03:19:02;;;;;;;12.63;5.30;;;;;;;10.33;51.67;100254.13;5022745;27;96777;-72
2022/04/24 03:21:29;;;;;;;12.60;5.00;;;;;;;10.88;50.71;100253.53;5024301;28;97055;-74
2022/04/24 03:23:56;;;;;;;11.95;5.40;;;;;;;11.33;49.29;100255.88;5024337;27;99555;-75
2022/04/24 03:26:22;;;;;;;11.75;5.40;;;;;;;11.08;49.76;100248.19;5028464;27;99137;-74
2022/04/24 03:28:48;;;;;;;11.98;5.78;;;;;;;11.01;49.76;100247.63;5033004;27;96720;-74
2022/04/24 03:31:15;;;;;;;12.88;6.43;;;;;;;10.87;50.25;100246.50;5026377;27;97442;-68
2022/04/24 03:33:41;;;;;;;11.18;6.03;;;;;;;10.94;49.67;100246.19;5028289;27;99015;-68
2022/04/24 03:36:08;;;;;;;14.85;5.43;;;;;;;11.06;49.99;100244.75;5022294;27;97761;-67
2022/04/24 03:38:35;;;;;;;12.40;5.40;;;;;;;10.95;49.66;100247.03;5022197;27;99390;-67
2022/04/24 03:41:02;;;;;;;10.80;5.63;;;;;;;11.04;49.92;100241.31;5029217;27;96870;-69
2022/04/24 03:43:29;;;;;;;10.40;5.30;;;;;;;10.90;49.91;100249.00;5022322;27;99044;-67
2022/04/24 03:45:55;;;;;;;12.73;5.57;;;;;;;11.21;49.43;100249.34;5029870;27;101049;-67
2022/04/24 03:48:22;;;;;;;11.15;5.93;;;;;;;11.33;49.24;100248.78;5020149;28;96695;-69
2022/04/24 03:50:48;;;;;;;15.40;5.75;;;;;;;11.60;48.35;100249.28;5024704;27;98506;-67
2022/04/24 03:53:15;;;;;;;12.45;5.43;;;;;;;11.28;49.13;100250.78;5021724;27;99043;-68
2022/04/24 03:55:43;;;;;;;11.88;5.70;;;;;;;11.40;48.96;100247.56;5030338;27;99228;-67
2022/04/24 03:58:09;;;;;;;16.30;6.63;;;;;;;11.39;48.80;100259.06;5029162;27;96868;-69
2022/04/24 04:00:36;;;;;;;18.48;5.70;;;;;;;11.28;48.85;100248.16;5031861;27;96932;-67
2022/04/24 04:03:02;;;;;;;12.30;6.03;;;;;;;10.61;50.84;100247.66;5024709;27;101460;-68
2022/04/24 04:05:29;;;;;;;12.23;5.82;;;;;;;10.30;51.94;100251.63;5027830;27;98819;-68
2022/04/24 04:07:56;;;;;;;10.95;6.22;;;;;;;10.66;51.18;100243.88;5028500;27;96978;-68
2022/04/24 04:10:23;;;;;;;9.70;5.20;;;;;;;10.48;51.67;100255.25;5021470;27;96938;-68
2022/04/24 04:12:51;;;;;;;11.45;5.78;;;;;;;10.42;51.65;100252.88;5032672;28;99169;-67
2022/04/24 04:15:17;;;;;;;11.45;5.65;;;;;;;10.64;51.48;100253.66;5026393;27;99130;-67
2022/04/24 04:17:44;;;;;;;13.57;6.50;;;;;;;10.47;51.86;100250.88;5030957;27;97061;-67
2022/04/24 04:20:12;;;;;;;10.20;5.72;;;;;;;10.30;52.10;100256.91;5029673;27;97135;-67
2022/04/24 04:22:48;;;;;;;11.68;6.55;;;;;;;10.71;51.41;100255.09;5029081;27;98787;-68
2022/04/24 04:25:14;;;;;;;10.57;6.23;;;;;;;11.00;50.47;100253.81;5025411;27;101028;-68
2022/04/24 04:27:40;;;;;;;13.90;6.40;;;;;;;11.37;49.39;100260.94;5026364;27;96870;-68
2022/04/24 04:30:10;;;;;;;11.30;5.63;;;;;;;11.46;49.30;100257.88;5019754;27;98055;-68
2022/04/24 04:32:36;;;;;;;12.07;5.95;;;;;;;11.40;49.48;100262.59;5023167;27;98650;-68
2022/04/24 04:35:04;;;;;;;12.43;6.68;;;;;;;10.72;51.04;100270.03;5027090;27;98991;-67
2022/04/24 04:37:31;;;;;;;12.02;6.18;;;;;;;10.56;51.48;100271.66;5029791;27;96897;-68
2022/04/24 04:39:58;;;;;;;13.40;6.68;;;;;;;10.75;51.38;100267.28;5031053;27;97238;-73
2022/04/24 04:42:24;;;;;;;13.00;7.05;;;;;;;10.57;51.79;100269.84;5031727;27;99329;-72
2022/04/24 04:44:51;;;;;;;11.80;5.97;;;;;;;10.83;51.12;100263.44;5029524;27;99157;-74
2022/04/24 04:47:18;;;;;;;15.98;5.45;;;;;;;11.03;50.79;100260.75;5027770;27;96852;-73
2022/04/24 04:49:45;;;;;;;17.88;6.60;;;;;;;10.65;51.41;100260.66;5028797;27;96943;-72
2022/04/24 04:52:11;;;;;;;12.02;5.97;;;;;;;11.22;50.04;100261.66;5027061;27;102167;-72
2022/04/24 04:54:40;;;;;;;14.70;6.20;;;;;;;11.04;50.68;100265.09;5030557;27;100653;-72
2022/04/24 04:57:07;;;;;;;13.05;6.18;;;;;;;11.08;50.23;100262.28;5030971;27;96928;-67
2022/04/24 04:59:34;;;;;;;16.33;6.70;;;;;;;10.84;51.47;100262.50;5026862;27;96947;-68
2022/04/24 05:02:01;;;;;;;11.65;6.15;;;;;;;10.51;51.91;100267.44;5024488;27;99452;-67
2022/04/24 05:04:29;;;;;;;13.90;6.85;;;;;;;10.60;51.98;100270.56;5020227;27;101707;-67
2022/04/24 05:06:55;;;;;;;17.63;6.60;;;;;;;10.97;51.05;100263.66;5027419;27;97017;-68
2022/04/24 05:09:22;;;;;;;14.70;7.03;;;;;;;10.96;51.06;100256.69;5030860;27;97102;-68
2022/04/24 05:11:48;;;;;;;14.18;6.55;;;;;;;11.24;49.95;100262.41;5025353;27;99282;-68
2022/04/24 05:14:15;;;;;;;15.07;6.47;;;;;;;11.86;48.45;100256.88;5027299;27;98092;-67
2022/04/24 05:16:41;;;;;;;16.40;6.68;;;;;;;11.64;49.24;100260.56;5030649;27;97556;-67
2022/04/24 05:19:08;;;;;;;12.60;6.38;;;;;;;11.11;50.47;100264.75;5029523;27;97210;-67
2022/04/24 05:21:36;;;;;;;11.95;5.75;;;;;;;10.87;50.96;100259.72;5028451;27;99043;-68
2022/04/24 05:24:02;;;;;;;12.50;6.55;;;;;;;11.01;51.32;100267.91;5022273;27;99628;-67
2022/04/24 05:26:28;;;;;;;12.27;6.63;;;;;;;11.23;50.42;100263.34;5027069;27;97676;-68
2022/04/24 05:28:55;;;;;;;14.90;6.60;;;;;;;11.90;48.74;100273.44;5025372;27;96877;-67
2022/04/24 05:31:21;;;;;;;10.52;5.70;;;;;;;11.88;48.36;100267.38;5024150;27;99438;-67
2022/04/24 05:34:27;;;;;;;15.35;6.40;;;;;;;11.74;48.80;100275.13;5024131;27;97672;-68
2022/04/24 05:36:54;;;;;;;13.50;7.00;;;;;;;11.82;49.05;100267.66;5024710;27;96882;-67
2022/04/24 05:39:21;;;;;;;11.45;6.95;;;;;;;11.94;48.87;100269.75;5030618;27;96947;-67
2022/04/24 05:41:47;;;;;;;18.27;6.72;;;;;;;12.51;47.22;100268.63;5028630;27;99203;-67
2022/04/24 05:44:14;;;;;;;14.25;6.47;;;;;;;12.10;48.00;100265.38;5023443;27;99156;-68
2022/04/24 05:46:40;;;;;;;14.68;6.80;;;;;;;12.62;46.88;100265.41;5025900;27;97292;-73
2022/04/24 05:49:06;;;;;;;12.85;6.75;;;;;;;12.62;46.77;100268.06;5024905;27;96973;-73
2022/04/24 05:51:33;;;;;;;15.52;6.70;;;;;;;12.71;46.60;100259.66;5019714;27;99332;-72
2022/04/24 05:54:01;;;;;;;10.65;5.97;;;;;;;13.03;45.58;100257.94;5026621;27;98656;-73
2022/04/24 05:56:27;;;;;;;14.43;6.78;;;;;;;13.20;45.52;100263.22;5024385;27;98931;-69
2022/04/24 05:58:54;;;;;;;11.73;6.57;;;;;;;14.11;43.34;100267.91;5021962;27;99251;-67
2022/04/24 06:01:20;;;;;;;12.15;6.57;;;;;;;13.56;44.69;100268.34;5021456;27;97884;-67
2022/04/24 06:03:47;;;;;;;15.15;6.75;;;;;;;14.01;43.28;100272.00;5026565;27;100364;-67
2022/04/24 06:06:14;;;;;;;9.93;5.95;;;;;;;13.16;44.99;100267.00;5026983;27;97260;-66
2022/04/24 06:08:41;;;;;;;15.85;6.63;;;;;;;12.93;45.76;100264.69;5024380;27;98047;-67
2022/04/24 06:11:08;;;;;;;12.68;6.70;;;;;;;12.62;46.14;100268.06;5021987;27;99608;-68
2022/04/24 06:13:34;;;;;;;14.90;6.55;;;;;;;13.42;44.43;100268.25;5025151;27;97621;-72
2022/04/24 06:16:16;;;;;;;11.27;6.28;;;;;;;13.71;43.82;100271.97;5029185;27;97768;-73
2022/04/24 06:18:42;;;;;;;16.83;7.63;;;;;;;13.90;43.08;100269.97;5028074;27;97625;-74
2022/04/24 06:21:08;;;;;;;13.75;7.15;;;;;;;13.78;43.42;100276.84;5025078;27;99581;-74
2022/04/24 06:23:35;;;;;;;10.85;5.88;;;;;;;13.38;43.98;100270.22;5026603;27;99088;-73
2022/04/24 06:26:27;;;;;;;12.75;6.47;;;;;;;13.70;43.35;100263.13;5028036;27;96805;-73
2022/04/24 06:28:55;;;;;;;15.43;7.03;;;;;;;13.67;43.83;100257.13;5026654;27;96915;-74
2022/04/24 06:31:21;;;;;;;15.05;6.78;;;;;;;14.11;43.00;100259.94;5022381;27;100318;-74
2022/04/24 06:33:48;;;;;;;11.52;6.90;;;;;;;14.54;42.01;100252.97;5017783;27;99163;-74
2022/04/24 06:36:14;;;;;;;12.27;6.88;;;;;;;14.74;41.43;100250.84;5026211;27;98895;-73
2022/04/24 06:38:40;;;;;;;10.02;6.22;;;;;;;15.25;40.38;100250.38;5026923;27;97195;-74
2022/04/24 06:41:07;;;;;;;14.57;7.07;;;;;;;14.92;41.23;100246.19;5024671;27;98953;-72
2022/04/24 06:43:33;;;;;;;11.18;7.00;;;;;;;14.78;41.34;100248.84;5021222;27;100985;-72
2022/04/24 06:46:01;;;;;;;10.65;7.05;;;;;;;14.72;42.01;100250.06;5027297;27;97185;-72
2022/04/24 06:48:27;;;;;;;11.43;6.38;;;;;;;14.39;42.72;100249.41;5026523;27;97039;-74
2022/04/24 06:50:54;;;;;;;15.80;6.50;;;;;;;14.44;42.24;100249.16;5028150;27;98905;-73
2022/04/24 06:53:21;;;;;;;10.82;6.00;;;;;;;13.85;43.73;100242.81;5025230;27;99212;-72
2022/04/24 06:55:52;;;;;;;14.57;7.22;;;;;;;14.51;42.20;100246.03;5023934;27;96821;-73
2022/04/24 06:58:20;;;;;;;10.68;6.95;;;;;;;13.96;43.16;100248.38;5027727;27;97407;-73
2022/04/24 07:00:49;;;;;;;12.85;7.03;;;;;;;13.80;43.63;100240.41;5023694;27;98490;-72
2022/04/24 07:03:18;;;;;;;13.75;6.97;;;;;;;14.17;42.77;100238.31;5024714;28;99279;-73
2022/04/24 07:05:45;;;;;;;14.52;6.90;;;;;;;15.65;40.13;100233.63;5024573;27;96975;-73
2022/04/24 07:08:12;;;;;;;9.02;5.68;;;;;;;16.23;38.38;100228.00;5025481;27;97017;-73
2022/04/24 07:10:39;;;;;;;11.55;6.85;;;;;;;16.17;38.77;100227.53;5027515;27;98904;-74
2022/04/24 07:13:06;;;;;;;12.40;6.85;;;;;;;15.36;39.72;100229.28;5029208;27;98931;-68
2022/04/24 07:15:38;;;;;;;12.30;6.40;;;;;;;15.64;39.55;100220.41;5021517;27;98810;-68
2022/04/24 07:18:05;;;;;;;12.38;6.65;;;;;;;15.93;38.89;100224.72;5023618;27;96762;-68
2022/04/24 07:20:33;;;;;;;11.63;6.70;;;;;;;16.01;38.68;100224.22;5026495;27;99277;-67
2022/04/24 07:23:02;;;;;;;14.27;6.95;;;;;;;16.29;37.90;100219.59;5024490;27;98765;-74
2022/04/24 07:25:32;;;;;;;13.80;6.85;;;;;;;16.27;38.30;100218.84;5027781;27;97183;-73
2022/04/24 07:27:59;;;;;;;10.82;6.38;;;;;;;16.28;37.90;100215.19;5022568;28;96866;-73
2022/04/24 07:30:26;;;;;;;13.70;6.15;;;;;;;16.84;36.50;100207.84;5028645;27;99254;-73
2022/04/24 07:32:54;;;;;;;11.23;6.43;;;;;;;16.76;36.75;100212.84;5026531;27;97648;-73
2022/04/24 07:35:22;;;;;;;15.15;6.50;;;;;;;17.01;36.34;100203.97;5028549;27;96887;-73
2022/04/24 07:37:50;;;;;;;17.00;6.88;;;;;;;17.78;34.66;100206.41;5025234;27;97548;-73
2022/04/24 07:40:21;;;;;;;10.13;6.28;;;;;;;17.41;35.53;100204.66;5024747;27;101967;-74
2022/04/24 07:42:50;;;;;;;12.10;5.95;;;;;;;18.47;33.45;100199.38;5025560;27;98976;-74
2022/04/24 07:45:21;;;;;;;12.10;5.80;;;;;;;17.55;35.04;100199.19;5018487;27;97104;-73
2022/04/24 07:47:48;;;;;;;11.48;6.10;;;;;;;17.51;35.19;100192.34;5024671;27;96932;-74
2022/04/24 07:50:16;;;;;;;8.70;5.95;;;;;;;17.09;35.97;100194.47;5025057;27;96886;-72
2022/04/24 07:52:44;;;;;;;12.20;6.65;;;;;;;17.44;35.57;100196.44;5021834;27;98723;-73
2022/04/24 07:55:15;;;;;;;11.77;6.40;;;;;;;17.57;35.08;100180.38;5026757;27;96827;-74
2022/04/24 07:57:44;;;;;;;9.98;6.20;;;;;;;17.70;34.29;100182.06;5023888;27;97067;-73
2022/04/24 08:00:11;;;;;;;9.48;6.13;;;;;;;18.53;33.20;100180.19;5024329;27;101819;-73
2022/04/24 08:02:49;;;;;;;10.60;6.22;;;;;;;18.72;32.74;100163.56;5020561;27;98044;-72
2022/04/24 08:05:23;;;;;;;8.43;5.53;;;;;;;17.57;33.62;100170.53;5025855;27;97569;-73
2022/04/24 08:07:50;;;;;;;12.77;5.50;;;;;;;17.74;33.44;100175.50;5024290;27;96922;-72
2022/04/24 08:10:18;;;;;;;12.63;5.40;;;;;;;16.93;34.69;100172.53;5024105;27;98942;-73
2022/04/24 08:12:45;;;;;;;9.80;4.88;;;;;;;17.28;34.58;100172.66;5013741;28;99085;-73
2022/04/24 08:15:11;;;;;;;8.15;5.43;;;;;;;17.12;34.39;100175.59;5028067;27;96926;-75
2022/04/24 08:17:38;;;;;;;7.82;4.55;;;;;;;17.66;33.83;100175.22;5022673;27;97178;-75
2022/04/24 08:20:06;;;;;;;6.32;4.75;;;;;;;17.82;33.48;100165.13;5013281;27;98946;-73
2022/04/24 08:22:39;;;;;;;7.95;5.00;;;;;;;18.26;32.61;100167.09;5017472;27;98998;-73
2022/04/24 08:25:08;;;;;;;9.63;4.90;;;;;;;18.44;31.96;100164.00;5023351;27;98990;-74
2022/04/24 08:27:36;;;;;;;7.40;4.53;;;;;;;19.24;30.25;100159.44;5016827;27;96890;-73
2022/04/24 08:30:03;;;;;;;7.97;4.80;;;;;;;19.89;29.23;100154.06;5027980;27;99407;-73
2022/04/24 08:32:30;;;;;;;9.88;4.90;;;;;;;18.98;30.27;100161.53;5020998;27;98820;-72
2022/04/24 08:34:57;;;;;;;7.75;4.90;;;;;;;18.75;30.73;100159.81;5031063;27;96756;-72
2022/04/24 08:37:24;;;;;;;6.63;4.82;;;;;;;18.91;30.32;100163.81;5025103;28;97083;-73
2022/04/24 08:39:51;;;;;;;6.65;4.63;;;;;;;17.40;32.39;100158.41;5024868;27;99185;-73
2022/04/24 08:42:18;;;;;;;15.52;4.72;;;;;;;19.06;30.63;100153.72;5022284;27;99072;-73
2022/04/24 08:44:46;;;;;;;8.68;4.85;;;;;;;19.02;30.52;100149.59;5025582;28;96875;-74
2022/04/24 08:47:16;;;;;;;8.10;4.57;;;;;;;19.10;29.98;100147.16;5019279;27;98081;-68
2022/04/24 08:49:43;;;;;;;5.97;4.38;;;;;;;18.59;30.51;100147.63;5019846;27;100038;-67
2022/04/24 08:52:10;;;;;;;8.30;4.70;;;;;;;19.30;29.82;100143.72;5021737;28;99164;-68
2022/04/24 08:54:37;;;;;;;6.30;4.03;;;;;;;19.94;28.72;100146.50;5027331;27;96945;-68
2022/04/24 08:57:04;;;;;;;10.80;4.40;;;;;;;19.91;29.07;100141.38;5022965;27;97445;-67
2022/04/24 08:59:30;;;;;;;7.40;4.13;;;;;;;19.28;29.60;100143.00;5022047;27;98805;-72
2022/04/24 09:01:59;;;;;;;6.75;4.00;;;;;;;19.91;28.69;100144.06;5022652;27;98901;-67
2022/04/24 09:04:26;;;;;;;8.80;4.45;;;;;;;19.90;28.69;100145.03;5024826;27;97025;-67
2022/04/24 09:06:56;;;;;;;7.28;3.88;;;;;;;20.05;29.01;100137.56;5021262;27;97480;-67
2022/04/24 09:09:23;;;;;;;7.72;4.30;;;;;;;19.70;29.16;100138.66;5026744;27;101629;-67
2022/04/24 09:11:50;;;;;;;9.82;4.07;;;;;;;19.24;29.56;100146.91;5019362;27;98941;-69
2022/04/24 09:14:18;;;;;;;9.30;5.05;;;;;;;19.06;29.83;100143.88;5020725;27;97225;-68
2022/04/24 09:16:49;;;;;;;7.70;4.57;;;;;;;19.08;30.28;100139.25;5021945;27;97480;-67
2022/04/24 09:19:21;;;;;;;6.68;3.50;;;;;;;19.02;30.15;100146.94;5021224;27;101256;-67
2022/04/24 09:21:48;;;;;;;7.22;5.07;;;;;;;18.82;30.55;100142.31;5026781;27;99307;-68
2022/04/24 09:24:14;;;;;;;13.05;5.72;;;;;;;19.69;29.85;100136.94;5021788;27;96832;-67
2022/04/24 09:26:51;;;;;;;6.30;4.03;;;;;;;19.26;30.00;100139.59;5025904;27;97634;-68
2022/04/24 09:29:17;;;;;;;7.70;4.70;;;;;;;20.03;29.37;100144.88;5021380;27;99014;-67
2022/04/24 09:31:47;;;;;;;5.70;4.00;;;;;;;19.81;30.30;100146.69;5020446;27;99017;-67
2022/04/24 09:34:14;;;;;;;7.70;4.72;;;;;;;19.67;29.66;100149.66;5021100;28;97243;-73
2022/04/24 09:36:42;;;;;;;9.50;4.93;;;;;;;20.24;29.69;100143.06;5022878;27;98218;-72
2022/04/24 09:39:09;;;;;;;7.25;4.78;;;;;;;20.08;29.24;100138.16;5025900;27;101618;-72
2022/04/24 09:41:37;;;;;;;10.15;4.93;;;;;;;19.80;29.76;100144.97;5031416;27;96849;-71
2022/04/24 09:44:12;;;;;;;9.05;4.70;;;;;;;19.15;30.46;100138.75;5032584;28;97135;-72
2022/04/24 09:46:38;;;;;;;5.50;4.43;;;;;;;19.19;30.56;100145.56;5029594;27;97532;-73
2022/04/24 09:49:08;;;;;;;8.82;4.30;;;;;;;19.18;30.33;100141.19;5022075;27;99377;-73
2022/04/24 09:51:40;;;;;;;6.68;4.13;;;;;;;19.61;29.92;100146.63;5001859;28;99562;-73
2022/04/24 09:54:10;;;;;;;9.88;4.68;;;;;;;19.48;30.29;100144.09;5020067;28;96794;-74
2022/04/24 09:56:37;;;;;;;9.48;4.70;;;;;;;19.90;29.23;100139.69;5022438;27;96975;-73
2022/04/24 09:59:04;;;;;;;9.68;4.93;;;;;;;19.95;29.31;100142.84;5021566;27;99232;-73
2022/04/24 10:01:32;;;;;;;7.53;4.88;;;;;;;19.95;29.54;100139.31;5020722;27;99095;-73
2022/04/24 10:03:59;;;;;;;6.85;4.15;;;;;;;20.30;29.38;100140.69;5022113;27;97885;-73
2022/04/24 10:06:26;;;;;;;10.43;4.45;;;;;;;20.38;29.13;100140.09;5017218;27;96910;-73
2022/04/24 10:08:52;;;;;;;7.35;4.47;;;;;;;20.82;28.64;100138.06;5022855;27;99231;-74
2022/04/24 10:11:24;;;;;;;7.70;4.00;;;;;;;21.60;27.65;100138.19;5018930;27;98888;-73
2022/04/24 10:13:57;;;;;;;8.18;4.10;;;;;;;21.58;27.62;100142.03;5021090;27;99360;-73
2022/04/24 10:16:43;;;;;;;9.32;4.68;;;;;;;20.39;29.04;100138.25;5018961;27;98746;-73
2022/04/24 10:19:21;;;;;;;7.60;5.18;;;;;;;19.47;29.55;100132.53;5020270;27;99329;-74
2022/04/24 10:22:03;;;;;;;7.25;4.78;;;;;;;20.00;28.96;100135.25;5015357;27;98513;-73
2022/04/24 10:24:40;;;;;;;8.07;3.92;;;;;;;19.72;29.61;100141.22;5021745;27;97090;-73
2022/04/24 10:27:09;;;;;;;18.35;4.95;;;;;;;19.45;30.02;100137.13;5022899;27;97744;-73
2022/04/24 10:29:36;;;;;;;6.80;4.75;;;;;;;19.69;29.76;100126.22;5019348;28;98978;-73
2022/04/24 10:32:03;;;;;;;6.32;4.18;;;;;;;20.25;29.17;100121.47;5025455;27;98825;-74
2022/04/24 10:34:39;;;;;;;8.85;4.18;;;;;;;19.32;30.20;100127.53;5023184;27;97312;-68
2022/04/24 10:37:06;;;;;;;6.53;4.50;;;;;;;19.78;29.44;100119.25;5022246;27;97721;-68
2022/04/24 10:39:34;;;;;;;9.20;4.20;;;;;;;20.01;28.99;100128.06;5021497;27;98245;-69
2022/04/24 10:42:08;;;;;;;10.45;4.20;;;;;;;19.22;30.15;100126.59;5024036;27;99536;-68
2022/04/24 10:44:36;;;;;;;6.95;4.10;;;;;;;18.68;30.50;100122.84;5019939;27;96857;-67
2022/04/24 10:47:12;;;;;;;8.95;4.22;;;;;;;19.60;29.49;100123.47;5019691;27;97950;-67
2022/04/24 10:49:38;;;;;;;4.43;4.03;;;;;;;20.50;28.78;100125.59;5015362;28;101671;-70
2022/04/24 10:52:11;;;;;;;4.57;3.83;;;;;;;21.35;28.00;100120.75;5023780;27;98828;-73
2022/04/24 10:54:39;;;;;;;5.03;4.10;;;;;;;21.40;28.61;100131.06;5018587;27;98670;-74
2022/04/24 10:57:16;;;;;;;7.45;4.18;;;;;;;21.12;28.29;100119.25;5023087;27;96904;-74
2022/04/24 10:59:47;;;;;;;6.05;3.90;;;;;;;20.88;27.58;100116.03;5021376;27;99196;-74
2022/04/24 11:02:14;;;;;;;5.53;3.78;;;;;;;20.73;28.22;100123.63;5017164;27;97611;-72
2022/04/24 11:04:42;;;;;;;6.80;4.63;;;;;;;19.88;31.09;100114.84;5021212;27;98471;-74
2022/04/24 11:07:21;;;;;;;6.03;4.18;;;;;;;20.34;31.17;100114.50;5019903;28;97093;-74
2022/04/24 11:09:47;;;;;;;7.78;4.78;;;;;;;20.53;30.60;100108.41;5020950;28;99476;-74
2022/04/24 11:12:14;;;;;;;9.32;4.78;;;;;;;20.37;30.69;100113.38;5020757;27;98871;-73
2022/04/24 11:14:41;;;;;;;9.40;3.90;;;;;;;19.96;29.00;100115.03;5019068;27;97700;-69
2022/04/24 11:17:08;;;;;;;6.45;3.65;;;;;;;20.07;28.83;100111.47;5022660;27;96976;-68
2022/04/24 11:19:36;;;;;;;8.77;4.00;;;;;;;20.58;29.35;100115.06;5019750;27;98889;-68
2022/04/24 11:22:07;;;;;;;8.05;4.07;;;;;;;20.32;29.88;100103.03;5020424;27;98923;-68